sensor_id;sensor_type;location;lat;lon;timestamp;P1;durP1;ratioP1;P2;durP2;ratioP2
211;SDS011;16228;48.800;9.002;2023-03-21T00:00:29;2.40;;;2.20;;
211;SDS011;16228;48.800;9.002;2023-03-21T00:02:56;3.17;;;2.50;;
211;SDS011;16228;48.800;9.002;2023-03-21T00:05:24;2.60;;;2.40;;
211;SDS011;16228;48.800;9.002;2023-03-21T00:07:51;4.17;;;2.50;;
211;SDS011;16228;48.800;9.002;2023-03-21T00:10:19;3.80;;;2.47;;
211;SDS011;16228;48.800;9.002;2023-03-21T00:12:46;2.93;;;2.27;;
211;SDS011;16228;48.800;9.002;2023-03-21T00:15:19;2.50;;;2.30;;
211;SDS011;16228;48.800;9.002;2023-03-21T00:17:46;2.67;;;2.47;;
211;SDS011;16228;48.800;9.002;2023-03-21T00:20:15;2.83;;;2.57;;
211;SDS011;16228;48.800;9.002;2023-03-21T00:22:42;3.00;;;2.70;;
211;SDS011;16228;48.800;9.002;2023-03-21T00:25:09;3.77;;;3.03;;
211;SDS011;16228;48.800;9.002;2023-03-21T00:27:37;4.17;;;2.80;;
211;SDS011;16228;48.800;9.002;2023-03-21T00:30:05;3.83;;;2.63;;
211;SDS011;16228;48.800;9.002;2023-03-21T00:32:33;2.87;;;2.57;;
211;SDS011;16228;48.800;9.002;2023-03-21T00:35:00;4.23;;;2.83;;
211;SDS011;16228;48.800;9.002;2023-03-21T00:37:27;2.83;;;2.57;;
211;SDS011;16228;48.800;9.002;2023-03-21T00:39:54;2.67;;;2.47;;
211;SDS011;16228;48.800;9.002;2023-03-21T00:42:21;3.23;;;2.63;;
211;SDS011;16228;48.800;9.002;2023-03-21T00:44:49;2.87;;;2.57;;
211;SDS011;16228;48.800;9.002;2023-03-21T00:47:16;3.40;;;2.87;;
211;SDS011;16228;48.800;9.002;2023-03-21T00:49:43;3.50;;;2.50;;
211;SDS011;16228;48.800;9.002;2023-03-21T00:52:10;2.97;;;2.50;;
211;SDS011;16228;48.800;9.002;2023-03-21T00:54:37;3.10;;;2.80;;
211;SDS011;16228;48.800;9.002;2023-03-21T00:57:04;3.10;;;2.80;;
211;SDS011;16228;48.800;9.002;2023-03-21T00:59:31;3.07;;;2.77;;
211;SDS011;16228;48.800;9.002;2023-03-21T01:01:59;3.70;;;2.83;;
211;SDS011;16228;48.800;9.002;2023-03-21T01:04:31;3.13;;;2.43;;
211;SDS011;16228;48.800;9.002;2023-03-21T01:06:59;3.20;;;2.90;;
211;SDS011;16228;48.800;9.002;2023-03-21T01:09:26;2.77;;;2.57;;
211;SDS011;16228;48.800;9.002;2023-03-21T01:11:53;2.70;;;2.47;;
211;SDS011;16228;48.800;9.002;2023-03-21T01:14:21;3.43;;;2.47;;
211;SDS011;16228;48.800;9.002;2023-03-21T01:16:49;3.30;;;2.50;;
211;SDS011;16228;48.800;9.002;2023-03-21T01:19:18;2.60;;;2.33;;
211;SDS011;16228;48.800;9.002;2023-03-21T01:21:46;2.33;;;2.13;;
211;SDS011;16228;48.800;9.002;2023-03-21T01:24:14;3.80;;;2.60;;
211;SDS011;16228;48.800;9.002;2023-03-21T01:26:41;3.67;;;2.90;;
211;SDS011;16228;48.800;9.002;2023-03-21T01:29:08;2.70;;;2.50;;
211;SDS011;16228;48.800;9.002;2023-03-21T01:31:35;3.20;;;2.90;;
211;SDS011;16228;48.800;9.002;2023-03-21T01:34:02;3.27;;;2.67;;
211;SDS011;16228;48.800;9.002;2023-03-21T01:36:30;3.97;;;2.50;;
211;SDS011;16228;48.800;9.002;2023-03-21T01:38:57;5.10;;;3.03;;
211;SDS011;16228;48.800;9.002;2023-03-21T01:41:25;2.80;;;2.50;;
211;SDS011;16228;48.800;9.002;2023-03-21T01:43:53;4.30;;;2.47;;
211;SDS011;16228;48.800;9.002;2023-03-21T01:46:28;4.27;;;2.93;;
211;SDS011;16228;48.800;9.002;2023-03-21T01:49:00;3.43;;;3.13;;
211;SDS011;16228;48.800;9.002;2023-03-21T01:51:31;3.00;;;2.70;;
211;SDS011;16228;48.800;9.002;2023-03-21T01:54:00;3.10;;;2.80;;
211;SDS011;16228;48.800;9.002;2023-03-21T01:56:28;6.63;;;3.50;;
211;SDS011;16228;48.800;9.002;2023-03-21T01:58:59;3.00;;;2.80;;
211;SDS011;16228;48.800;9.002;2023-03-21T02:01:30;4.40;;;2.53;;
211;SDS011;16228;48.800;9.002;2023-03-21T02:03:59;4.23;;;2.90;;
211;SDS011;16228;48.800;9.002;2023-03-21T02:06:29;3.70;;;3.23;;
211;SDS011;16228;48.800;9.002;2023-03-21T02:09:03;3.07;;;2.77;;
211;SDS011;16228;48.800;9.002;2023-03-21T02:11:34;3.83;;;3.17;;
211;SDS011;16228;48.800;9.002;2023-03-21T02:14:02;3.23;;;2.93;;
211;SDS011;16228;48.800;9.002;2023-03-21T02:16:36;4.30;;;2.93;;
211;SDS011;16228;48.800;9.002;2023-03-21T02:19:16;3.77;;;3.37;;
211;SDS011;16228;48.800;9.002;2023-03-21T02:25:07;4.57;;;3.93;;
211;SDS011;16228;48.800;9.002;2023-03-21T02:27:54;4.03;;;3.30;;
211;SDS011;16228;48.800;9.002;2023-03-21T02:30:44;4.47;;;4.07;;
211;SDS011;16228;48.800;9.002;2023-03-21T02:36:27;4.00;;;3.70;;
211;SDS011;16228;48.800;9.002;2023-03-21T02:39:12;4.73;;;3.90;;
211;SDS011;16228;48.800;9.002;2023-03-21T02:41:44;4.77;;;3.90;;
211;SDS011;16228;48.800;9.002;2023-03-21T02:44:17;3.60;;;3.30;;
211;SDS011;16228;48.800;9.002;2023-03-21T02:46:49;3.63;;;3.33;;
211;SDS011;16228;48.800;9.002;2023-03-21T02:49:21;3.80;;;3.50;;
211;SDS011;16228;48.800;9.002;2023-03-21T02:51:54;3.10;;;2.80;;
211;SDS011;16228;48.800;9.002;2023-03-21T02:54:22;3.40;;;3.10;;
211;SDS011;16228;48.800;9.002;2023-03-21T02:56:51;5.10;;;3.33;;
211;SDS011;16228;48.800;9.002;2023-03-21T02:59:21;5.67;;;3.80;;
211;SDS011;16228;48.800;9.002;2023-03-21T03:01:50;4.73;;;3.30;;
211;SDS011;16228;48.800;9.002;2023-03-21T03:04:18;4.03;;;3.73;;
211;SDS011;16228;48.800;9.002;2023-03-21T03:06:52;3.70;;;3.40;;
211;SDS011;16228;48.800;9.002;2023-03-21T03:09:51;3.57;;;3.03;;
211;SDS011;16228;48.800;9.002;2023-03-21T03:12:29;3.93;;;3.50;;
211;SDS011;16228;48.800;9.002;2023-03-21T03:15:05;3.67;;;3.27;;
211;SDS011;16228;48.800;9.002;2023-03-21T03:17:49;5.53;;;3.50;;
211;SDS011;16228;48.800;9.002;2023-03-21T03:20:22;3.07;;;2.77;;
211;SDS011;16228;48.800;9.002;2023-03-21T03:22:54;3.20;;;2.90;;
211;SDS011;16228;48.800;9.002;2023-03-21T03:25:31;4.10;;;3.23;;
211;SDS011;16228;48.800;9.002;2023-03-21T03:28:05;3.33;;;3.03;;
211;SDS011;16228;48.800;9.002;2023-03-21T03:30:34;3.50;;;3.20;;
211;SDS011;16228;48.800;9.002;2023-03-21T03:33:03;3.40;;;3.10;;
211;SDS011;16228;48.800;9.002;2023-03-21T03:35:33;3.70;;;3.40;;
211;SDS011;16228;48.800;9.002;2023-03-21T03:38:01;3.53;;;3.10;;
211;SDS011;16228;48.800;9.002;2023-03-21T03:40:35;3.07;;;2.87;;
211;SDS011;16228;48.800;9.002;2023-03-21T03:43:07;3.10;;;2.90;;
211;SDS011;16228;48.800;9.002;2023-03-21T03:45:41;3.60;;;3.30;;
211;SDS011;16228;48.800;9.002;2023-03-21T03:48:14;3.57;;;3.27;;
211;SDS011;16228;48.800;9.002;2023-03-21T03:50:46;4.40;;;3.07;;
211;SDS011;16228;48.800;9.002;2023-03-21T03:53:18;3.70;;;3.40;;
211;SDS011;16228;48.800;9.002;2023-03-21T03:55:49;3.87;;;3.50;;
211;SDS011;16228;48.800;9.002;2023-03-21T03:58:19;3.33;;;3.03;;
211;SDS011;16228;48.800;9.002;2023-03-21T04:00:47;3.93;;;3.63;;
211;SDS011;16228;48.800;9.002;2023-03-21T04:03:14;3.63;;;3.33;;
211;SDS011;16228;48.800;9.002;2023-03-21T04:05:42;3.67;;;3.30;;
211;SDS011;16228;48.800;9.002;2023-03-21T04:08:10;3.97;;;3.57;;
211;SDS011;16228;48.800;9.002;2023-03-21T04:10:38;5.53;;;3.90;;
211;SDS011;16228;48.800;9.002;2023-03-21T04:13:07;3.67;;;3.40;;
211;SDS011;16228;48.800;9.002;2023-03-21T04:15:34;4.20;;;3.87;;
211;SDS011;16228;48.800;9.002;2023-03-21T04:18:01;3.60;;;3.33;;
211;SDS011;16228;48.800;9.002;2023-03-21T04:20:28;4.30;;;3.90;;
211;SDS011;16228;48.800;9.002;2023-03-21T04:22:56;4.40;;;4.10;;
211;SDS011;16228;48.800;9.002;2023-03-21T04:25:23;4.97;;;4.47;;
211;SDS011;16228;48.800;9.002;2023-03-21T04:27:52;4.87;;;4.47;;
211;SDS011;16228;48.800;9.002;2023-03-21T04:30:21;5.00;;;4.50;;
211;SDS011;16228;48.800;9.002;2023-03-21T04:32:49;5.80;;;5.40;;
211;SDS011;16228;48.800;9.002;2023-03-21T04:35:18;6.40;;;5.80;;
211;SDS011;16228;48.800;9.002;2023-03-21T04:37:45;5.73;;;5.33;;
211;SDS011;16228;48.800;9.002;2023-03-21T04:40:12;5.07;;;4.47;;
211;SDS011;16228;48.800;9.002;2023-03-21T04:42:42;4.90;;;4.50;;
211;SDS011;16228;48.800;9.002;2023-03-21T04:45:09;8.40;;;5.47;;
211;SDS011;16228;48.800;9.002;2023-03-21T04:47:38;6.47;;;5.77;;
211;SDS011;16228;48.800;9.002;2023-03-21T04:50:06;5.30;;;4.80;;
211;SDS011;16228;48.800;9.002;2023-03-21T04:52:34;6.00;;;5.40;;
211;SDS011;16228;48.800;9.002;2023-03-21T04:55:01;5.07;;;4.67;;
211;SDS011;16228;48.800;9.002;2023-03-21T04:57:27;5.37;;;4.97;;
211;SDS011;16228;48.800;9.002;2023-03-21T04:59:55;5.70;;;5.20;;
211;SDS011;16228;48.800;9.002;2023-03-21T05:02:22;5.90;;;5.03;;
211;SDS011;16228;48.800;9.002;2023-03-21T05:04:51;5.70;;;5.17;;
211;SDS011;16228;48.800;9.002;2023-03-21T05:07:18;5.80;;;5.30;;
211;SDS011;16228;48.800;9.002;2023-03-21T05:09:50;6.03;;;5.40;;
211;SDS011;16228;48.800;9.002;2023-03-21T05:12:17;6.30;;;5.80;;
211;SDS011;16228;48.800;9.002;2023-03-21T05:14:45;5.93;;;5.53;;
211;SDS011;16228;48.800;9.002;2023-03-21T05:17:12;6.60;;;5.97;;
211;SDS011;16228;48.800;9.002;2023-03-21T05:19:47;5.93;;;5.53;;
211;SDS011;16228;48.800;9.002;2023-03-21T05:22:16;6.90;;;6.37;;
211;SDS011;16228;48.800;9.002;2023-03-21T05:24:44;6.90;;;6.20;;
211;SDS011;16228;48.800;9.002;2023-03-21T05:27:14;5.97;;;5.47;;
211;SDS011;16228;48.800;9.002;2023-03-21T05:29:59;7.03;;;6.33;;
211;SDS011;16228;48.800;9.002;2023-03-21T05:32:27;5.67;;;5.27;;
211;SDS011;16228;48.800;9.002;2023-03-21T05:34:54;6.13;;;5.57;;
211;SDS011;16228;48.800;9.002;2023-03-21T05:37:23;5.47;;;4.97;;
211;SDS011;16228;48.800;9.002;2023-03-21T05:39:50;7.63;;;7.03;;
211;SDS011;16228;48.800;9.002;2023-03-21T05:42:17;6.10;;;5.23;;
211;SDS011;16228;48.800;9.002;2023-03-21T05:44:44;5.27;;;4.87;;
211;SDS011;16228;48.800;9.002;2023-03-21T05:47:12;7.40;;;6.57;;
211;SDS011;16228;48.800;9.002;2023-03-21T05:49:40;7.43;;;5.63;;
211;SDS011;16228;48.800;9.002;2023-03-21T05:52:08;7.23;;;6.73;;
211;SDS011;16228;48.800;9.002;2023-03-21T05:54:36;7.37;;;5.40;;
211;SDS011;16228;48.800;9.002;2023-03-21T05:57:03;6.40;;;5.10;;
211;SDS011;16228;48.800;9.002;2023-03-21T05:59:30;5.70;;;5.20;;
211;SDS011;16228;48.800;9.002;2023-03-21T06:01:58;5.90;;;4.50;;
211;SDS011;16228;48.800;9.002;2023-03-21T06:04:26;7.47;;;6.77;;
211;SDS011;16228;48.800;9.002;2023-03-21T06:06:53;7.27;;;6.53;;
211;SDS011;16228;48.800;9.002;2023-03-21T06:09:20;8.30;;;7.30;;
211;SDS011;16228;48.800;9.002;2023-03-21T06:11:49;11.30;;;8.47;;
211;SDS011;16228;48.800;9.002;2023-03-21T06:14:19;9.73;;;8.37;;
211;SDS011;16228;48.800;9.002;2023-03-21T06:16:46;9.73;;;7.53;;
211;SDS011;16228;48.800;9.002;2023-03-21T06:19:13;11.67;;;7.40;;
211;SDS011;16228;48.800;9.002;2023-03-21T06:21:40;8.30;;;7.23;;
211;SDS011;16228;48.800;9.002;2023-03-21T06:24:08;6.90;;;6.20;;
211;SDS011;16228;48.800;9.002;2023-03-21T06:26:35;8.37;;;6.87;;
211;SDS011;16228;48.800;9.002;2023-03-21T06:29:04;6.50;;;5.80;;
211;SDS011;16228;48.800;9.002;2023-03-21T06:31:31;6.53;;;5.03;;
211;SDS011;16228;48.800;9.002;2023-03-21T06:33:58;6.67;;;5.57;;
211;SDS011;16228;48.800;9.002;2023-03-21T06:36:25;5.47;;;4.97;;
211;SDS011;16228;48.800;9.002;2023-03-21T06:38:52;4.93;;;4.47;;
211;SDS011;16228;48.800;9.002;2023-03-21T06:41:19;4.83;;;4.33;;
211;SDS011;16228;48.800;9.002;2023-03-21T06:43:46;5.30;;;4.73;;
211;SDS011;16228;48.800;9.002;2023-03-21T06:46:14;4.70;;;4.30;;
211;SDS011;16228;48.800;9.002;2023-03-21T06:48:41;6.10;;;4.03;;
211;SDS011;16228;48.800;9.002;2023-03-21T06:51:10;6.87;;;3.83;;
211;SDS011;16228;48.800;9.002;2023-03-21T06:53:38;4.93;;;3.73;;
211;SDS011;16228;48.800;9.002;2023-03-21T06:56:06;4.93;;;2.90;;
211;SDS011;16228;48.800;9.002;2023-03-21T06:58:34;4.90;;;2.97;;
211;SDS011;16228;48.800;9.002;2023-03-21T07:01:01;5.57;;;2.73;;
211;SDS011;16228;48.800;9.002;2023-03-21T07:03:30;3.13;;;2.33;;
211;SDS011;16228;48.800;9.002;2023-03-21T07:05:58;4.13;;;2.90;;
211;SDS011;16228;48.800;9.002;2023-03-21T07:08:29;5.10;;;2.50;;
211;SDS011;16228;48.800;9.002;2023-03-21T07:10:56;3.07;;;2.77;;
211;SDS011;16228;48.800;9.002;2023-03-21T07:13:23;3.13;;;2.67;;
211;SDS011;16228;48.800;9.002;2023-03-21T07:15:51;3.37;;;2.63;;
211;SDS011;16228;48.800;9.002;2023-03-21T07:18:18;3.53;;;2.90;;
211;SDS011;16228;48.800;9.002;2023-03-21T07:20:47;7.00;;;2.67;;
211;SDS011;16228;48.800;9.002;2023-03-21T07:23:16;5.60;;;2.87;;
211;SDS011;16228;48.800;9.002;2023-03-21T07:25:44;4.30;;;2.93;;
211;SDS011;16228;48.800;9.002;2023-03-21T07:28:13;2.47;;;2.27;;
211;SDS011;16228;48.800;9.002;2023-03-21T07:30:40;3.87;;;2.20;;
211;SDS011;16228;48.800;9.002;2023-03-21T07:33:07;3.07;;;2.20;;
211;SDS011;16228;48.800;9.002;2023-03-21T07:35:35;2.43;;;2.17;;
211;SDS011;16228;48.800;9.002;2023-03-21T07:38:04;5.53;;;2.10;;
211;SDS011;16228;48.800;9.002;2023-03-21T07:40:31;2.63;;;1.73;;
211;SDS011;16228;48.800;9.002;2023-03-21T07:42:58;3.30;;;1.90;;
211;SDS011;16228;48.800;9.002;2023-03-21T07:45:25;4.77;;;2.30;;
211;SDS011;16228;48.800;9.002;2023-03-21T07:47:52;3.50;;;2.83;;
211;SDS011;16228;48.800;9.002;2023-03-21T07:50:19;3.93;;;2.10;;
211;SDS011;16228;48.800;9.002;2023-03-21T07:52:47;2.50;;;1.97;;
211;SDS011;16228;48.800;9.002;2023-03-21T07:55:15;3.00;;;1.90;;
211;SDS011;16228;48.800;9.002;2023-03-21T07:57:43;4.47;;;1.90;;
211;SDS011;16228;48.800;9.002;2023-03-21T08:00:10;2.30;;;2.00;;
211;SDS011;16228;48.800;9.002;2023-03-21T08:02:47;2.60;;;1.80;;
211;SDS011;16228;48.800;9.002;2023-03-21T08:05:19;2.70;;;1.80;;
211;SDS011;16228;48.800;9.002;2023-03-21T08:07:46;2.23;;;1.67;;
211;SDS011;16228;48.800;9.002;2023-03-21T08:10:15;1.50;;;1.40;;
211;SDS011;16228;48.800;9.002;2023-03-21T08:12:43;3.83;;;2.00;;
211;SDS011;16228;48.800;9.002;2023-03-21T08:15:11;1.97;;;1.70;;
211;SDS011;16228;48.800;9.002;2023-03-21T08:17:39;4.13;;;1.90;;
211;SDS011;16228;48.800;9.002;2023-03-21T08:20:06;2.47;;;1.90;;
211;SDS011;16228;48.800;9.002;2023-03-21T08:22:36;2.50;;;1.90;;
211;SDS011;16228;48.800;9.002;2023-03-21T08:25:03;3.17;;;1.60;;
211;SDS011;16228;48.800;9.002;2023-03-21T08:27:33;2.13;;;1.80;;
211;SDS011;16228;48.800;9.002;2023-03-21T08:30:00;2.63;;;1.70;;
211;SDS011;16228;48.800;9.002;2023-03-21T08:32:28;1.50;;;1.40;;
211;SDS011;16228;48.800;9.002;2023-03-21T08:34:57;3.53;;;1.97;;
211;SDS011;16228;48.800;9.002;2023-03-21T08:37:25;3.70;;;1.70;;
211;SDS011;16228;48.800;9.002;2023-03-21T08:39:53;2.00;;;1.67;;
211;SDS011;16228;48.800;9.002;2023-03-21T08:42:20;1.60;;;1.50;;
211;SDS011;16228;48.800;9.002;2023-03-21T08:44:49;1.50;;;1.40;;
211;SDS011;16228;48.800;9.002;2023-03-21T08:47:16;2.63;;;1.73;;
211;SDS011;16228;48.800;9.002;2023-03-21T08:49:43;3.20;;;1.50;;
211;SDS011;16228;48.800;9.002;2023-03-21T08:52:11;2.97;;;1.70;;
211;SDS011;16228;48.800;9.002;2023-03-21T08:54:38;3.27;;;1.70;;
211;SDS011;16228;48.800;9.002;2023-03-21T08:57:06;2.77;;;1.67;;
211;SDS011;16228;48.800;9.002;2023-03-21T08:59:35;2.10;;;1.43;;
211;SDS011;16228;48.800;9.002;2023-03-21T09:02:03;1.90;;;1.37;;
211;SDS011;16228;48.800;9.002;2023-03-21T09:04:30;1.80;;;1.40;;
211;SDS011;16228;48.800;9.002;2023-03-21T09:06:58;2.60;;;1.43;;
211;SDS011;16228;48.800;9.002;2023-03-21T09:09:29;1.93;;;1.00;;
211;SDS011;16228;48.800;9.002;2023-03-21T09:11:56;2.30;;;1.40;;
211;SDS011;16228;48.800;9.002;2023-03-21T09:14:23;3.07;;;1.30;;
211;SDS011;16228;48.800;9.002;2023-03-21T09:16:50;3.10;;;1.20;;
211;SDS011;16228;48.800;9.002;2023-03-21T09:19:19;2.70;;;1.30;;
211;SDS011;16228;48.800;9.002;2023-03-21T09:21:46;2.47;;;1.23;;
211;SDS011;16228;48.800;9.002;2023-03-21T09:24:13;2.93;;;1.20;;
211;SDS011;16228;48.800;9.002;2023-03-21T09:26:42;2.90;;;1.40;;
211;SDS011;16228;48.800;9.002;2023-03-21T09:29:09;3.17;;;1.50;;
211;SDS011;16228;48.800;9.002;2023-03-21T09:31:36;2.03;;;1.40;;
211;SDS011;16228;48.800;9.002;2023-03-21T09:34:04;2.03;;;1.70;;
211;SDS011;16228;48.800;9.002;2023-03-21T09:36:33;1.83;;;1.40;;
211;SDS011;16228;48.800;9.002;2023-03-21T09:39:02;1.60;;;1.50;;
211;SDS011;16228;48.800;9.002;2023-03-21T09:41:32;2.20;;;1.40;;
211;SDS011;16228;48.800;9.002;2023-03-21T09:44:26;2.53;;;1.40;;
211;SDS011;16228;48.800;9.002;2023-03-21T09:47:02;1.73;;;1.40;;
211;SDS011;16228;48.800;9.002;2023-03-21T09:49:37;2.57;;;1.60;;
211;SDS011;16228;48.800;9.002;2023-03-21T09:52:11;1.77;;;1.50;;
211;SDS011;16228;48.800;9.002;2023-03-21T09:54:43;1.40;;;1.30;;
211;SDS011;16228;48.800;9.002;2023-03-21T09:57:13;1.30;;;1.20;;
211;SDS011;16228;48.800;9.002;2023-03-21T09:59:47;2.27;;;1.60;;
211;SDS011;16228;48.800;9.002;2023-03-21T10:02:20;1.40;;;1.17;;
211;SDS011;16228;48.800;9.002;2023-03-21T10:05:01;3.37;;;1.40;;
211;SDS011;16228;48.800;9.002;2023-03-21T10:07:38;1.67;;;1.43;;
211;SDS011;16228;48.800;9.002;2023-03-21T10:10:11;3.50;;;1.50;;
211;SDS011;16228;48.800;9.002;2023-03-21T10:12:43;1.33;;;1.23;;
211;SDS011;16228;48.800;9.002;2023-03-21T10:15:14;1.40;;;1.30;;
211;SDS011;16228;48.800;9.002;2023-03-21T10:17:43;2.13;;;1.60;;
211;SDS011;16228;48.800;9.002;2023-03-21T10:20:16;1.50;;;1.33;;
211;SDS011;16228;48.800;9.002;2023-03-21T10:22:47;1.53;;;1.13;;
211;SDS011;16228;48.800;9.002;2023-03-21T10:25:16;0.90;;;0.90;;
211;SDS011;16228;48.800;9.002;2023-03-21T10:27:45;1.23;;;1.10;;
211;SDS011;16228;48.800;9.002;2023-03-21T10:30:17;1.40;;;1.20;;
211;SDS011;16228;48.800;9.002;2023-03-21T10:32:51;1.37;;;1.10;;
211;SDS011;16228;48.800;9.002;2023-03-21T10:35:19;2.80;;;1.20;;
211;SDS011;16228;48.800;9.002;2023-03-21T10:37:48;1.50;;;1.17;;
211;SDS011;16228;48.800;9.002;2023-03-21T10:40:15;1.33;;;1.20;;
211;SDS011;16228;48.800;9.002;2023-03-21T10:42:43;1.70;;;1.10;;
211;SDS011;16228;48.800;9.002;2023-03-21T10:45:14;1.87;;;1.03;;
211;SDS011;16228;48.800;9.002;2023-03-21T10:47:43;1.20;;;0.87;;
211;SDS011;16228;48.800;9.002;2023-03-21T10:50:14;1.40;;;1.30;;
211;SDS011;16228;48.800;9.002;2023-03-21T10:52:45;2.17;;;0.87;;
211;SDS011;16228;48.800;9.002;2023-03-21T10:55:17;0.87;;;0.70;;
211;SDS011;16228;48.800;9.002;2023-03-21T10:57:52;2.33;;;0.97;;
211;SDS011;16228;48.800;9.002;2023-03-21T11:00:23;3.60;;;0.90;;
211;SDS011;16228;48.800;9.002;2023-03-21T11:02:53;1.43;;;0.83;;
211;SDS011;16228;48.800;9.002;2023-03-21T11:05:23;0.80;;;0.80;;
211;SDS011;16228;48.800;9.002;2023-03-21T11:07:58;1.37;;;0.93;;
211;SDS011;16228;48.800;9.002;2023-03-21T11:10:28;1.37;;;1.10;;
211;SDS011;16228;48.800;9.002;2023-03-21T11:12:57;1.13;;;1.03;;
211;SDS011;16228;48.800;9.002;2023-03-21T11:15:28;0.80;;;0.80;;
211;SDS011;16228;48.800;9.002;2023-03-21T11:17:57;1.63;;;1.17;;
211;SDS011;16228;48.800;9.002;2023-03-21T11:20:25;1.70;;;0.90;;
211;SDS011;16228;48.800;9.002;2023-03-21T11:22:56;0.87;;;0.87;;
211;SDS011;16228;48.800;9.002;2023-03-21T11:25:26;2.50;;;0.90;;
211;SDS011;16228;48.800;9.002;2023-03-21T11:28:04;1.03;;;0.90;;
211;SDS011;16228;48.800;9.002;2023-03-21T11:30:32;1.40;;;0.97;;
211;SDS011;16228;48.800;9.002;2023-03-21T11:33:00;1.43;;;1.07;;
211;SDS011;16228;48.800;9.002;2023-03-21T11:35:31;1.00;;;0.90;;
211;SDS011;16228;48.800;9.002;2023-03-21T11:38:01;1.13;;;0.90;;
211;SDS011;16228;48.800;9.002;2023-03-21T11:40:29;3.27;;;1.40;;
211;SDS011;16228;48.800;9.002;2023-03-21T11:42:57;1.57;;;1.07;;
211;SDS011;16228;48.800;9.002;2023-03-21T11:45:26;1.47;;;1.00;;
211;SDS011;16228;48.800;9.002;2023-03-21T11:47:55;2.13;;;1.10;;
211;SDS011;16228;48.800;9.002;2023-03-21T11:50:28;2.33;;;1.40;;
211;SDS011;16228;48.800;9.002;2023-03-21T11:53:03;2.63;;;1.50;;
211;SDS011;16228;48.800;9.002;2023-03-21T11:55:44;2.97;;;1.47;;
211;SDS011;16228;48.800;9.002;2023-03-21T11:58:30;1.60;;;1.50;;
211;SDS011;16228;48.800;9.002;2023-03-21T12:01:04;1.60;;;1.50;;
211;SDS011;16228;48.800;9.002;2023-03-21T12:03:45;2.40;;;1.57;;
211;SDS011;16228;48.800;9.002;2023-03-21T12:06:34;1.67;;;1.57;;
211;SDS011;16228;48.800;9.002;2023-03-21T12:09:10;2.33;;;1.63;;
211;SDS011;16228;48.800;9.002;2023-03-21T12:11:53;2.97;;;1.70;;
211;SDS011;16228;48.800;9.002;2023-03-21T12:14:29;2.03;;;1.43;;
211;SDS011;16228;48.800;9.002;2023-03-21T12:17:05;1.80;;;1.70;;
211;SDS011;16228;48.800;9.002;2023-03-21T12:19:55;1.60;;;1.40;;
211;SDS011;16228;48.800;9.002;2023-03-21T12:22:37;2.53;;;1.70;;
211;SDS011;16228;48.800;9.002;2023-03-21T12:25:13;2.30;;;1.70;;
211;SDS011;16228;48.800;9.002;2023-03-21T12:27:44;2.17;;;1.50;;
211;SDS011;16228;48.800;9.002;2023-03-21T12:30:36;2.57;;;1.60;;
211;SDS011;16228;48.800;9.002;2023-03-21T12:33:18;2.40;;;1.50;;
211;SDS011;16228;48.800;9.002;2023-03-21T12:35:57;2.20;;;1.50;;
211;SDS011;16228;48.800;9.002;2023-03-21T12:38:42;2.43;;;1.60;;
211;SDS011;16228;48.800;9.002;2023-03-21T12:41:19;3.07;;;1.43;;
211;SDS011;16228;48.800;9.002;2023-03-21T12:43:50;1.57;;;1.30;;
211;SDS011;16228;48.800;9.002;2023-03-21T12:46:23;4.10;;;2.10;;
211;SDS011;16228;48.800;9.002;2023-03-21T12:48:55;2.20;;;1.53;;
211;SDS011;16228;48.800;9.002;2023-03-21T12:51:27;1.40;;;1.30;;
211;SDS011;16228;48.800;9.002;2023-03-21T12:54:01;3.13;;;1.50;;
211;SDS011;16228;48.800;9.002;2023-03-21T12:56:36;1.90;;;1.80;;
211;SDS011;16228;48.800;9.002;2023-03-21T12:59:12;2.37;;;1.87;;
211;SDS011;16228;48.800;9.002;2023-03-21T13:01:55;1.97;;;1.40;;
211;SDS011;16228;48.800;9.002;2023-03-21T13:04:30;2.63;;;1.60;;
211;SDS011;16228;48.800;9.002;2023-03-21T13:07:02;2.17;;;1.50;;
211;SDS011;16228;48.800;9.002;2023-03-21T13:09:33;2.67;;;1.50;;
211;SDS011;16228;48.800;9.002;2023-03-21T13:12:04;2.60;;;1.30;;
211;SDS011;16228;48.800;9.002;2023-03-21T13:14:52;3.33;;;1.20;;
211;SDS011;16228;48.800;9.002;2023-03-21T13:17:29;1.43;;;1.33;;
211;SDS011;16228;48.800;9.002;2023-03-21T13:20:04;1.43;;;1.10;;
211;SDS011;16228;48.800;9.002;2023-03-21T13:22:39;1.97;;;1.47;;
211;SDS011;16228;48.800;9.002;2023-03-21T13:25:14;1.50;;;1.40;;
211;SDS011;16228;48.800;9.002;2023-03-21T13:27:46;1.60;;;1.50;;
211;SDS011;16228;48.800;9.002;2023-03-21T13:30:19;1.93;;;1.40;;
211;SDS011;16228;48.800;9.002;2023-03-21T13:32:48;6.00;;;1.90;;
211;SDS011;16228;48.800;9.002;2023-03-21T13:35:18;3.10;;;2.10;;
211;SDS011;16228;48.800;9.002;2023-03-21T13:37:52;1.47;;;1.27;;
211;SDS011;16228;48.800;9.002;2023-03-21T13:40:23;1.67;;;1.37;;
211;SDS011;16228;48.800;9.002;2023-03-21T13:42:54;1.33;;;1.07;;
211;SDS011;16228;48.800;9.002;2023-03-21T13:45:26;1.10;;;1.10;;
211;SDS011;16228;48.800;9.002;2023-03-21T13:47:57;1.40;;;1.30;;
211;SDS011;16228;48.800;9.002;2023-03-21T13:50:29;2.27;;;1.47;;
211;SDS011;16228;48.800;9.002;2023-03-21T13:53:08;2.73;;;1.47;;
211;SDS011;16228;48.800;9.002;2023-03-21T13:55:45;1.30;;;1.20;;
211;SDS011;16228;48.800;9.002;2023-03-21T13:58:30;1.50;;;1.40;;
211;SDS011;16228;48.800;9.002;2023-03-21T14:03:55;3.57;;;1.57;;
211;SDS011;16228;48.800;9.002;2023-03-21T14:06:29;2.30;;;1.60;;
211;SDS011;16228;48.800;9.002;2023-03-21T14:08:59;1.97;;;1.60;;
211;SDS011;16228;48.800;9.002;2023-03-21T14:11:27;2.93;;;1.90;;
211;SDS011;16228;48.800;9.002;2023-03-21T14:13:58;2.43;;;1.70;;
211;SDS011;16228;48.800;9.002;2023-03-21T14:16:26;2.70;;;1.60;;
211;SDS011;16228;48.800;9.002;2023-03-21T14:18:55;2.47;;;2.00;;
211;SDS011;16228;48.800;9.002;2023-03-21T14:21:26;3.37;;;1.80;;
211;SDS011;16228;48.800;9.002;2023-03-21T14:23:56;3.50;;;1.87;;
211;SDS011;16228;48.800;9.002;2023-03-21T14:26:24;2.27;;;1.80;;
211;SDS011;16228;48.800;9.002;2023-03-21T14:28:54;5.30;;;2.10;;
211;SDS011;16228;48.800;9.002;2023-03-21T14:31:22;2.93;;;2.00;;
211;SDS011;16228;48.800;9.002;2023-03-21T14:33:50;4.43;;;2.13;;
211;SDS011;16228;48.800;9.002;2023-03-21T14:36:19;3.97;;;2.43;;
211;SDS011;16228;48.800;9.002;2023-03-21T14:38:54;4.07;;;2.03;;
211;SDS011;16228;48.800;9.002;2023-03-21T14:41:30;2.03;;;1.83;;
211;SDS011;16228;48.800;9.002;2023-03-21T14:44:02;3.17;;;2.10;;
211;SDS011;16228;48.800;9.002;2023-03-21T14:46:41;2.83;;;1.70;;
211;SDS011;16228;48.800;9.002;2023-03-21T14:49:10;3.13;;;1.90;;
211;SDS011;16228;48.800;9.002;2023-03-21T14:51:38;2.33;;;1.63;;
211;SDS011;16228;48.800;9.002;2023-03-21T14:54:07;2.63;;;1.70;;
211;SDS011;16228;48.800;9.002;2023-03-21T14:56:37;2.63;;;1.90;;
211;SDS011;16228;48.800;9.002;2023-03-21T14:59:05;3.87;;;1.83;;
211;SDS011;16228;48.800;9.002;2023-03-21T15:01:35;3.60;;;1.67;;
211;SDS011;16228;48.800;9.002;2023-03-21T15:04:04;2.33;;;1.80;;
211;SDS011;16228;48.800;9.002;2023-03-21T15:06:32;2.50;;;1.57;;
211;SDS011;16228;48.800;9.002;2023-03-21T15:09:00;3.37;;;1.77;;
211;SDS011;16228;48.800;9.002;2023-03-21T15:11:29;1.73;;;1.50;;
211;SDS011;16228;48.800;9.002;2023-03-21T15:13:58;2.53;;;2.20;;
211;SDS011;16228;48.800;9.002;2023-03-21T15:16:26;3.57;;;1.97;;
211;SDS011;16228;48.800;9.002;2023-03-21T15:18:54;2.77;;;1.83;;
211;SDS011;16228;48.800;9.002;2023-03-21T15:21:24;2.23;;;1.90;;
211;SDS011;16228;48.800;9.002;2023-03-21T15:23:55;4.53;;;2.40;;
211;SDS011;16228;48.800;9.002;2023-03-21T15:26:25;3.53;;;1.90;;
211;SDS011;16228;48.800;9.002;2023-03-21T15:28:54;2.33;;;2.00;;
211;SDS011;16228;48.800;9.002;2023-03-21T15:31:23;2.47;;;1.70;;
211;SDS011;16228;48.800;9.002;2023-03-21T15:33:56;3.20;;;1.80;;
211;SDS011;16228;48.800;9.002;2023-03-21T15:36:25;2.53;;;1.70;;
211;SDS011;16228;48.800;9.002;2023-03-21T15:38:54;2.63;;;1.90;;
211;SDS011;16228;48.800;9.002;2023-03-21T15:41:25;4.47;;;1.83;;
211;SDS011;16228;48.800;9.002;2023-03-21T15:43:59;6.17;;;2.13;;